Terminal Aerodrome Forecast
Issued by NWS Boston, MA

Home | Current Version | Previous Version | Text Only | Print | Product List | Glossary On
Versions: 1 2 3 4 5 6 7 8 9 10 11 12 13 14 15 16 17 18 19 20 21 22 23 24 25 26 27 28 29 30 31 32 33 34 35 36 37 38 39 40
000
FTUS41 KBOX 301429 AAA
TAFPVD
TAF AMD
KPVD 301429Z 3014/3112 00000KT 1SM -SN BR SCT012 OVC020
     FM301600 00000KT 3SM -SN OVC012
     FM301800 33006KT 2SM -SN OVC008
     FM302000 33007KT P6SM OVC008
     FM310000 32013G25KT P6SM OVC015
     FM310600 32017G35KT 1SM -SN OVC020
     FM310800 32018G36KT P6SM OVC020=

USA.gov is the U.S. government's official web portal to all federal, state and local government web resources and services.